Time;durP1;ratioP1;P1;durP2;ratioP2;P2;SDS_P1;SDS_P2;PMS_P1;PMS_P2;Temp;Humidity;BMP_temperature;BMP_pressure;BME280_temperature;BME280_humidity;BME280_pressure;Samples;Min_cycle;Max_cycle;Signal;HPM_P1;HPM_P2
2022/12/19 00:01:20;;;;;;;;;29.25;27.25;;;;;3.79;86.56;101073.97;5004357;28;45226;-90
2022/12/19 00:03:48;;;;;;;;;22.50;20.00;;;;;1.97;86.74;100741.94;5006248;28;45469;-92
2022/12/19 00:06:17;;;;;;;;;21.50;21.50;;;;;2.78;86.21;100903.34;5006356;28;45331;-90
2022/12/19 00:08:53;;;;;;;;;26.50;24.25;;;;;3.87;86.50;101076.72;5001039;28;45358;-93
2022/12/19 00:11:21;;;;;;;;;23.00;20.00;;;;;2.75;85.79;100890.25;4947869;28;45335;-93
2022/12/19 00:13:47;;;;;;;;;32.00;23.75;;;;;3.29;86.43;100957.31;4986266;28;45326;-92
2022/12/19 00:16:15;;;;;;;;;20.25;18.75;;;;;2.27;86.85;100793.75;4993276;28;47083;-92
2022/12/19 00:18:43;;;;;;;;;30.25;25.25;;;;;2.20;85.62;100760.59;5011354;28;44699;-93
2022/12/19 00:24:30;;;;;;;;;23.75;22.00;;;;;2.20;86.19;100765.81;4965208;28;45245;-92
2022/12/19 00:27:07;;;;;;;;;26.00;24.75;;;;;2.99;86.94;100882.84;4985929;28;46698;-93
2022/12/19 00:29:33;;;;;;;;;28.50;21.75;;;;;2.65;85.42;100826.56;4997955;28;44817;-92
2022/12/19 00:32:04;;;;;;;;;21.00;20.50;;;;;3.22;86.70;100908.44;5014206;28;44766;-92
2022/12/19 00:34:40;;;;;;;;;22.00;20.25;;;;;3.72;86.41;101001.53;5010522;28;44878;-92
2022/12/19 00:37:08;;;;;;;;;24.00;21.75;;;;;3.72;86.29;101012.88;4982129;28;47222;-92
2022/12/19 00:39:34;;;;;;;;;26.75;22.25;;;;;3.73;86.72;100995.44;4980403;28;45449;-94
2022/12/19 00:42:01;;;;;;;;;28.00;24.25;;;;;3.46;87.05;100954.06;4991734;28;45352;-92
2022/12/19 00:44:41;;;;;;;;;23.25;18.00;;;;;4.17;86.40;101065.81;4994872;28;44942;-92
2022/12/19 00:47:10;;;;;;;;;30.75;21.25;;;;;2.44;86.16;100760.09;4987205;28;45279;-93
2022/12/19 00:49:40;;;;;;;;;18.50;18.50;;;;;3.10;86.56;100866.44;4970545;28;45456;-92
2022/12/19 00:52:19;;;;;;;;;19.50;18.75;;;;;3.45;86.69;100906.16;4984346;28;45302;-91
2022/12/19 00:54:44;;;;;;;;;23.00;21.50;;;;;3.52;85.80;100915.84;4996719;28;45607;-92
2022/12/19 00:57:17;;;;;;;;;20.25;19.00;;;;;2.98;85.81;100815.78;4992961;28;47029;-96
2022/12/19 00:59:43;;;;;;;;;27.25;19.75;;;;;3.31;85.22;100856.31;4964570;28;45450;-94
2022/12/19 01:02:15;;;;;;;;;23.00;22.25;;;;;3.48;86.16;100895.75;4987036;28;45397;-92
2022/12/19 01:04:43;;;;;;;;;20.25;19.25;;;;;4.34;86.03;101032.03;5003276;28;45235;-92
2022/12/19 01:07:09;;;;;;;;;18.00;18.00;;;;;3.28;85.36;100848.44;4985300;28;46998;-93
2022/12/19 01:09:39;;;;;;;;;20.75;19.75;;;;;3.57;86.01;100889.78;4982384;28;45445;-94
2022/12/19 01:15:06;;;;;;;;;;;;;;;;;;;;;
2022/12/19 01:17:51;;;;;;;;;19.50;18.25;;;;;3.92;85.50;100950.38;4971318;28;75284;-93
2022/12/19 01:20:25;;;;;;;;;21.00;19.75;;;;;4.43;86.12;101029.53;4999597;28;45405;-96
2022/12/19 01:22:53;;;;;;;;;24.00;21.75;;;;;3.67;85.91;100902.09;4979525;28;45396;-91
2022/12/19 01:26:07;;;;;;;;;13.75;13.75;;;;;4.44;86.41;101036.50;4978099;28;45275;-94
2022/12/19 01:36:07;;;;;;;;;;;;;;;;;;;;;
2022/12/19 01:38:59;;;;;;;;;;;;;;;;;;;;;
2022/12/19 01:41:37;;;;;;;;;26.00;17.50;;;;;3.42;86.00;100832.06;4958022;28;74564;-93
2022/12/19 01:44:25;;;;;;;;;20.75;16.25;;;;;4.62;86.78;101021.91;4948421;28;45506;-94
2022/12/19 01:50:39;;;;;;;;;13.50;12.50;;;;;2.80;85.56;100683.22;4886816;28;45469;-94
2022/12/19 02:21:39;;;;;;;;;16.50;15.00;;;;;4.24;86.13;100891.47;4797990;29;45510;-93
2022/12/19 02:28:13;;;;;;;;;16.25;13.50;;;;;4.97;86.36;101018.78;4833570;29;45413;-93
2022/12/19 02:31:24;;;;;;;;;;;;;;;;;;;;;
2022/12/19 02:34:17;;;;;;;;;15.75;15.00;;;;;4.98;86.68;101021.41;4855018;29;74478;-92
2022/12/19 02:37:43;;;;;;;;;;;;;;;;;;;;;
2022/12/19 02:40:35;;;;;;;;;17.00;15.75;;;;;4.59;87.22;100959.91;4860380;29;45272;-92
2022/12/19 02:43:32;;;;;;;;;;;;;;;;;;;;;
2022/12/19 02:59:52;;;;;;;;;12.75;11.00;;;;;5.02;87.73;101030.19;4953963;28;45406;-93
2022/12/19 03:03:02;;;;;;;;;17.25;14.50;;;;;5.04;86.68;101011.84;4947232;28;45273;-91
2022/12/19 03:10:12;;;;;;;;;12.25;12.25;;;;;5.06;87.06;101012.75;4931495;28;45370;-92
2022/12/19 03:16:12;;;;;;;;;12.75;12.50;;;;;3.95;87.11;100828.34;4933692;28;45365;-92
2022/12/19 03:18:44;;;;;;;;;14.75;12.75;;;;;3.12;87.88;100689.72;4928589;28;45571;-92
2022/12/19 03:21:44;;;;;;;;;;;;;;;;;;;;;
2022/12/19 03:24:22;;;;;;;;;13.25;12.00;;;;;4.73;87.73;100957.41;4962351;28;75312;-92
2022/12/19 03:30:24;;;;;;;;;12.00;12.00;;;;;4.42;87.85;100902.13;4929189;28;45297;-93
2022/12/19 03:32:55;;;;;;;;;19.50;16.50;;;;;4.03;87.81;100822.34;4929874;28;44886;-92
2022/12/19 03:35:36;;;;;;;;;15.75;14.00;;;;;5.18;87.87;101012.88;4954834;28;46765;-92
2022/12/19 03:38:22;;;;;;;;;14.75;12.50;;;;;4.82;87.81;100958.38;4953544;28;45171;-93
2022/12/19 03:40:49;;;;;;;;;13.00;13.00;;;;;5.22;88.28;101014.63;4933862;28;44795;-93
2022/12/19 03:43:28;;;;;;;;;12.75;11.75;;;;;4.27;87.90;100839.16;4929374;28;45532;-93
2022/12/19 03:46:15;;;;;;;;;13.75;13.75;;;;;4.62;87.29;100885.75;4932961;28;46707;-94
2022/12/19 03:48:54;;;;;;;;;13.75;12.75;;;;;5.09;88.04;100963.00;4932728;28;45248;-92
2022/12/19 03:51:20;;;;;;;;;14.25;13.25;;;;;4.93;87.67;100933.16;4934201;28;45266;-93
2022/12/19 03:54:35;;;;;;;;;18.25;16.00;;;;;4.62;87.25;100870.03;4956084;28;44877;-92
2022/12/19 03:57:32;;;;;;;;;18.75;18.75;;;;;5.05;86.76;100933.25;4942662;28;45844;-93
2022/12/19 04:00:16;;;;;;;;;;;;;;;;;;;;;
2022/12/19 04:02:58;;;;;;;;;11.50;11.50;;;;;4.00;87.53;100769.97;4936638;28;67888;-93
2022/12/19 04:09:26;;;;;;;;;;;;;;;;;;;;;
2022/12/19 04:12:20;;;;;;;;;10.75;10.75;;;;;4.31;87.64;100812.13;4941962;28;73638;-94
2022/12/19 04:15:15;;;;;;;;;14.00;11.50;;;;;5.02;87.62;100935.84;4946384;28;45469;-93
2022/12/19 04:18:19;;;;;;;;;;;;;;;;;;;;;
2022/12/19 04:21:04;;;;;;;;;;;;;;;;;;;;;
2022/12/19 04:23:41;;;;;;;;;12.25;10.75;;;;;4.62;86.82;100838.63;4951282;28;72425;-93
2022/12/19 04:26:15;;;;;;;;;12.00;10.25;;;;;4.38;87.19;100811.34;4946508;28;45322;-93
2022/12/19 04:39:18;;;;;;;;;15.75;13.50;;;;;5.36;87.21;100956.22;4927599;28;45478;-94
2022/12/19 04:45:22;;;;;;;;;7.50;7.25;;;;;4.22;87.59;100754.47;4941094;28;45335;-93
2022/12/19 04:48:02;;;;;;;;;;;;;;;;;;;;;
2022/12/19 04:50:41;;;;;;;;;13.00;13.00;;;;;4.55;86.96;100808.00;4955248;28;68054;-92
2022/12/19 04:53:10;;;;;;;;;16.00;12.25;;;;;4.95;87.10;100863.31;4954573;28;45343;-92
2022/12/19 04:55:49;;;;;;;;;;;;;;;;;;;;;
2022/12/19 04:58:17;;;;;;;;;14.50;10.00;;;;;5.29;86.98;100931.72;4956408;28;72643;-91
2022/12/19 05:00:43;;;;;;;;;11.00;11.00;;;;;4.98;87.08;100864.22;4922908;28;45512;-91
2022/12/19 05:03:09;;;;;;;;;12.25;9.00;;;;;5.59;86.95;100959.03;4954547;28;45610;-92
2022/12/19 05:05:34;;;;;;;;;11.00;8.25;;;;;5.20;87.95;100889.72;4947743;28;47653;-91
2022/12/19 05:08:06;;;;;;;;;14.00;11.50;;;;;5.94;88.30;100997.72;4989779;28;45471;-91
2022/12/19 05:10:32;;;;;;;;;14.00;12.25;;;;;5.57;87.70;100947.63;4964917;28;45315;-92
2022/12/19 05:12:57;;;;;;;;;13.25;11.75;;;;;4.99;87.96;100841.50;4987620;28;45388;-92
2022/12/19 05:15:23;;;;;;;;;12.75;9.50;;;;;4.98;88.23;100847.63;4990181;28;47025;-93
2022/12/19 05:17:49;;;;;;;;;9.00;9.00;;;;;5.28;88.19;100883.66;4990813;28;45457;-92
2022/12/19 05:20:17;;;;;;;;;10.00;9.50;;;;;5.61;87.29;100955.53;4992749;28;45337;-93
2022/12/19 05:22:43;;;;;;;;;11.25;11.25;;;;;5.17;87.15;100851.25;4965917;28;45631;-93
2022/12/19 05:25:11;;;;;;;;;11.00;9.50;;;;;5.27;87.67;100891.50;5021806;28;46322;-93
2022/12/19 05:27:52;;;;;;;;;;;;;;;;;;;;;
2022/12/19 05:30:22;;;;;;;;;12.00;9.25;;;;;4.58;87.87;100758.28;4995056;28;69779;-92
2022/12/19 05:32:52;;;;;;;;;10.00;9.25;;;;;5.35;87.94;100881.94;5022328;28;45416;-92
2022/12/19 05:35:21;;;;;;;;;13.00;10.00;;;;;4.83;86.67;100800.34;5007458;28;45588;-91
2022/12/19 05:37:50;;;;;;;;;10.75;9.00;;;;;4.77;87.15;100788.09;5012222;28;45217;-92
2022/12/19 05:40:21;;;;;;;;;8.50;8.00;;;;;5.36;87.23;100888.94;5010063;28;45355;-91
2022/12/19 05:42:47;;;;;;;;;10.25;10.25;;;;;5.33;87.12;100902.03;5002189;28;44828;-93
2022/12/19 05:45:23;;;;;;;;;;;;;;;;;;;;;
2022/12/19 05:47:50;;;;;;;;;5.50;5.50;;;;;6.09;88.49;101010.94;5007469;28;72163;-93
2022/12/19 05:50:19;;;;;;;;;9.00;8.00;;;;;4.33;87.90;100704.84;5012642;28;45349;-92
2022/12/19 05:52:48;;;;;;;;;8.50;8.50;;;;;5.33;86.93;100875.81;5027242;28;45563;-92
2022/12/19 05:55:20;;;;;;;;;10.00;9.75;;;;;5.76;88.26;100962.59;5016340;28;45269;-92
2022/12/19 05:57:47;;;;;;;;;8.75;8.25;;;;;5.15;87.52;100850.38;5009157;28;45402;-90
2022/12/19 06:00:25;;;;;;;;;;;;;;;;;;;;;
2022/12/19 06:03:02;;;;;;;;;12.00;9.75;;;;;4.56;88.20;100749.53;5007931;28;68939;-92
2022/12/19 06:05:48;;;;;;;;;10.00;10.00;;;;;5.12;88.29;100840.72;5017579;28;45378;-93
2022/12/19 06:11:37;;;;;;;;;12.50;9.25;;;;;5.21;87.97;100844.25;5010946;28;45562;-92
2022/12/19 06:14:08;;;;;;;;;8.50;7.00;;;;;4.75;88.05;100761.91;5012405;28;45197;-92
2022/12/19 06:24:28;;;;;;;;;;;;;;;;;;;;;
2022/12/19 06:27:12;;;;;;;;;11.00;10.75;;;;;6.26;88.51;101010.16;4870642;29;45379;-93
2022/12/19 06:32:45;;;;;;;;;13.25;10.25;;;;;6.15;88.08;100979.47;4879383;29;44770;-92
2022/12/19 06:38:38;;;;;;;;;8.50;8.50;;;;;5.02;87.95;100797.00;4872230;29;45278;-93
2022/12/19 06:44:28;;;;;;;;;10.50;10.00;;;;;5.93;87.63;100927.72;4855042;29;45476;-92
2022/12/19 06:47:07;;;;;;;;;;;;;;;;;;;;;
2022/12/19 06:49:39;;;;;;;;;9.50;9.50;;;;;4.90;87.34;100744.53;4864261;29;70587;-94
2022/12/19 06:52:29;;;;;;;;;13.00;10.00;;;;;5.84;87.52;100921.53;4853976;29;47704;-94
2022/12/19 06:55:15;;;;;;;;;15.00;13.50;;;;;6.11;86.90;100940.09;4910277;28;45386;-92
2022/12/19 06:58:06;;;;;;;;;12.25;9.50;;;;;4.57;87.03;100667.50;5008253;28;45432;-92
2022/12/19 07:00:37;;;;;;;;;13.75;11.50;;;;;6.10;87.45;100936.56;4979201;28;45273;-93
2022/12/19 07:03:25;;;;;;;;;16.50;13.00;;;;;5.45;87.37;100836.56;4979188;28;46971;-91
2022/12/19 07:05:52;;;;;;;;;12.25;10.00;;;;;5.15;87.35;100758.66;5004833;28;45287;-91
2022/12/19 07:47:12;;;;;;;;;13.00;13.00;;;;;4.82;87.25;100720.91;4990426;28;46605;-94
2022/12/19 07:49:38;;;;;;;;;11.00;9.00;;;;;5.96;87.80;100909.38;4987760;28;47022;-91
2022/12/19 07:52:04;;;;;;;;;13.50;12.00;;;;;5.83;88.57;100903.16;5002004;28;45432;-90
2022/12/19 07:54:30;;;;;;;;;10.00;10.00;;;;;5.31;87.53;100810.28;4987255;28;45362;-91
2022/12/19 07:57:01;;;;;;;;;9.00;9.00;;;;;6.14;87.73;100953.22;5007702;28;45647;-91
2022/12/19 07:59:39;;;;;;;;;8.25;4.50;;;;;6.01;86.91;100924.31;4994239;28;45326;-91
2022/12/19 08:06:12;;;;;;;;;6.50;6.50;;;;;5.61;86.81;100871.59;4968645;28;45410;-91
2022/12/19 08:11:34;;;;;;;;;8.25;8.00;;;;;6.21;86.45;100963.75;5282029;22;45459;-91
2022/12/19 08:14:15;;;;;;;;;12.50;8.00;;;;;5.42;86.54;100820.81;4998498;28;44911;-94
2022/12/19 08:17:20;;;;;;;;;;;;;;;;;;;;;
2022/12/19 08:56:07;;;;;;;;;16.25;12.25;;;;;6.03;85.76;100869.19;5019323;22;45407;-89
2022/12/19 08:58:39;;;;;;;;;11.50;8.25;;;;;5.99;85.54;100857.78;4992007;28;45190;-89
2022/12/19 09:01:09;;;;;;;;;9.25;9.25;;;;;6.11;85.78;100890.22;4995493;28;45611;-89
2022/12/19 09:03:35;;;;;;;;;9.00;9.00;;;;;6.82;86.04;100972.69;4998535;28;47812;-90
2022/12/19 09:06:08;;;;;;;;;9.50;9.00;;;;;6.62;85.63;100934.97;4980215;28;45271;-90
2022/12/19 09:08:40;;;;;;;;;10.50;8.00;;;;;6.08;85.32;100840.34;4986172;28;45271;-89
2022/12/19 09:11:20;;;;;;;;;8.00;8.00;;;;;6.15;84.29;100842.97;4989185;28;45422;-90
2022/12/19 09:13:49;;;;;;;;;12.00;12.00;;;;;6.74;84.39;100929.72;5008972;28;46298;-90
2022/12/19 09:34:05;;;;;;;;;9.50;9.25;;;;;6.63;84.56;100911.34;4960817;28;46008;-92
2022/12/19 09:36:31;;;;;;;;;13.25;10.00;;;;;5.98;84.40;100777.34;4963864;28;47884;-92
2022/12/19 09:38:57;;;;;;;;;11.25;10.25;;;;;6.62;83.96;100879.81;4971933;28;45584;-92
2022/12/19 09:42:02;;;;;;;;;10.25;9.75;;;;;6.71;83.13;100908.72;4970536;28;45365;-92
2022/12/19 09:44:52;;;;;;;;;10.00;10.00;;;;;7.70;84.03;101063.88;4895608;29;45494;-92
2022/12/19 09:47:27;;;;;;;;;13.50;10.50;;;;;7.40;83.92;101013.03;4894329;29;47116;-91
2022/12/19 09:49:53;;;;;;;;;10.75;10.75;;;;;6.14;83.41;100807.09;4894085;29;45292;-90
2022/12/19 09:52:34;;;;;;;;;13.25;11.00;;;;;7.88;83.80;101098.09;4896254;29;45259;-92
2022/12/19 09:55:17;;;;;;;;;11.50;10.00;;;;;6.25;83.32;100809.75;4897558;29;45426;-92
2022/12/19 09:58:11;;;;;;;;;14.00;12.25;;;;;7.53;83.35;101012.16;4891428;29;45475;-91
2022/12/19 10:00:47;;;;;;;;;12.50;11.25;;;;;6.81;83.32;100907.84;4811062;29;45417;-91
2022/12/19 10:03:38;;;;;;;;;17.00;13.25;;;;;7.20;83.98;100963.94;4799474;29;45383;-91
2022/12/19 10:06:20;;;;;;;;;11.75;11.75;;;;;7.47;83.72;101020.94;4813171;29;45290;-91
2022/12/19 10:08:50;;;;;;;;;9.25;9.25;;;;;6.85;83.61;100899.09;4791614;29;46633;-92
2022/12/19 10:11:15;;;;;;;;;12.75;11.75;;;;;7.85;83.71;101066.53;4780979;29;45384;-92
2022/12/19 10:14:02;;;;;;;;;10.25;10.25;;;;;7.84;82.74;101054.22;4796744;29;45268;-90
2022/12/19 10:16:42;;;;;;;;;5.75;5.50;;;;;7.82;83.67;101071.78;4802240;29;45370;-90
2022/12/19 10:19:58;;;;;;;;;12.50;12.00;;;;;7.15;83.22;100955.19;4799010;29;46484;-89
2022/12/19 10:22:42;;;;;;;;;12.00;11.25;;;;;6.12;81.98;100743.25;4870400;29;45309;-90
2022/12/19 10:25:13;;;;;;;;;11.25;11.25;;;;;7.93;83.78;101048.97;4854143;29;45287;-92
2022/12/19 10:28:03;;;;;;;;;10.50;10.50;;;;;7.67;83.77;101003.38;4857406;29;45384;-88
2022/12/19 10:30:35;;;;;;;;;10.25;9.00;;;;;6.66;84.08;100818.53;4859706;29;46194;-90
2022/12/19 10:33:28;;;;;;;;;12.25;9.25;;;;;7.47;82.36;100954.31;4871075;29;45607;-93
2022/12/19 10:35:57;;;;;;;;;10.75;9.00;;;;;7.25;82.77;100908.72;4896986;29;44801;-93
2022/12/19 10:38:41;;;;;;;;;9.75;9.75;;;;;8.09;83.03;101038.38;4923203;28;45226;-95
2022/12/19 10:41:52;;;;;;;;;10.75;10.75;;;;;7.73;82.41;100979.66;4912628;29;47178;-95
2022/12/19 10:44:25;;;;;;;;;11.75;11.00;;;;;7.82;82.84;100979.69;4933181;28;45541;-92
2022/12/19 10:46:58;;;;;;;;;12.00;10.50;;;;;7.17;82.88;100866.69;4901592;29;45451;-93
2022/12/19 10:53:32;;;;;;;;;11.00;9.25;;;;;8.28;83.25;101037.47;4917836;29;45918;-94
2022/12/19 11:52:00;;;;;;;;;11.75;11.75;;;;;8.66;81.48;100981.13;4998924;28;45481;-92
2022/12/19 11:55:34;;;;;;;;;;;;;;;;;;;;;
2022/12/19 11:58:38;;;;;;;;;9.75;8.00;;;;;8.58;81.53;100960.97;4863716;28;75306;-94
2022/12/19 12:08:08;;;;;;;;;7.50;5.75;;;;;8.83;81.78;100967.84;4929491;28;45334;-93
2022/12/19 12:10:49;;;;;;;;;9.75;5.50;;;;;8.79;81.88;100962.59;4932778;28;45209;-90
2022/12/19 12:13:27;;;;;;;;;9.00;9.00;;;;;7.82;81.24;100791.06;4912262;28;45504;-92
2022/12/19 12:16:11;;;;;;;;;5.00;3.75;;;;;6.99;81.00;100638.06;4918689;28;45391;-91
2022/12/19 12:19:09;;;;;;;;;13.75;11.25;;;;;8.59;81.58;100905.63;4931213;28;45231;-90
2022/12/19 12:21:53;;;;;;;;;6.50;6.50;;;;;7.75;80.89;100778.81;4894143;28;45753;-90
2022/12/19 12:24:38;;;;;;;;;10.00;10.00;;;;;8.29;81.41;100833.78;4905824;28;45331;-90
2022/12/19 12:27:37;;;;;;;;;7.00;6.25;;;;;8.97;80.54;100941.38;4922439;28;45439;-90
2022/12/19 12:30:20;;;;;;;;;8.50;8.50;;;;;7.99;81.16;100787.47;4911767;28;45432;-90
2022/12/19 12:40:20;;;;;;;;;11.25;10.00;;;;;9.10;81.64;100913.16;4906774;29;45309;-92
2022/12/19 12:54:26;;;;;;;;;12.00;8.50;;;;;8.21;81.28;100738.16;4741980;30;45363;-92
2022/12/19 12:57:05;;;;;;;;;7.75;7.50;;;;;8.87;81.31;100860.63;4723269;30;45458;-91
2022/12/19 13:00:22;;;;;;;;;8.25;7.00;;;;;9.24;81.60;100908.63;4741903;29;46945;-91
2022/12/19 13:03:14;;;;;;;;;7.25;7.25;;;;;8.03;81.83;100672.47;4703391;30;45479;-92
2022/12/19 13:05:48;;;;;;;;;8.50;7.00;;;;;8.61;81.45;100764.22;4710015;30;45484;-91
2022/12/19 13:32:37;;;;;;;;;5.75;2.50;;;;;10.02;80.80;100873.47;4882559;29;45284;-91
2022/12/19 13:35:35;;;;;;;;;5.25;4.00;;;;;9.05;81.53;100727.75;4903093;28;45607;-90
2022/12/19 13:38:25;;;;;;;;;5.75;5.75;;;;;9.11;80.84;100732.06;4910510;29;46005;-90
2022/12/19 13:44:13;;;;;;;;;8.00;5.00;;;;;8.77;80.98;100669.19;4902192;28;45350;-90
2022/12/19 13:46:57;;;;;;;;;4.00;4.00;;;;;10.17;80.71;100896.16;4888249;29;45526;-92
2022/12/19 13:49:42;;;;;;;;;4.00;3.75;;;;;9.43;80.89;100758.94;4889834;29;45287;-91
2022/12/19 13:52:13;;;;;;;;;5.50;5.50;;;;;9.17;81.36;100724.97;4899436;28;44797;-90
2022/12/19 13:55:09;;;;;;;;;4.00;3.00;;;;;9.64;81.13;100788.63;4912689;28;45448;-93
2022/12/19 13:57:47;;;;;;;;;5.25;5.25;;;;;10.26;80.38;100882.84;4925304;28;45297;-92
2022/12/19 14:00:48;;;;;;;;;4.50;4.50;;;;;9.69;80.72;100770.06;4925707;28;46496;-92
2022/12/19 14:09:57;;;;;;;;;5.75;5.00;;;;;9.90;81.45;100801.47;4837287;29;45296;-91
2022/12/19 14:21:34;;;;;;;;;5.50;5.50;;;;;8.69;80.65;100563.88;4839574;29;45405;-91
2022/12/19 14:24:23;;;;;;;;;7.25;6.50;;;;;9.49;80.88;100725.44;4818974;29;45463;-88
2022/12/19 14:26:56;;;;;;;;;6.75;5.75;;;;;10.08;80.15;100802.97;4834317;29;45442;-91
2022/12/19 14:29:31;;;;;;;;;5.25;5.25;;;;;10.01;80.46;100814.50;4829170;29;45497;-91
2022/12/19 14:32:06;;;;;;;;;7.25;4.00;;;;;9.38;80.18;100701.84;4840250;29;45326;-91
2022/12/19 14:35:04;;;;;;;;;5.00;4.75;;;;;9.33;80.94;100699.28;4853869;29;46223;-90
2022/12/19 14:37:51;;;;;;;;;7.00;6.50;;;;;10.37;80.72;100874.78;4810777;29;45309;-90
2022/12/19 14:40:40;;;;;;;;;5.00;5.00;;;;;10.38;81.02;100856.28;4850953;29;45809;-90
2022/12/19 14:43:38;;;;;;;;;7.00;6.25;;;;;9.40;81.17;100684.25;4870268;28;45512;-90
2022/12/19 14:46:19;;;;;;;;;0.25;0.00;;;;;10.41;80.62;100861.50;4928857;28;47119;-90
2022/12/19 14:48:58;;;;;;;;;4.75;4.50;;;;;9.85;80.33;100794.47;4931652;28;45560;-90
2022/12/19 14:51:32;;;;;;;;;6.75;3.75;;;;;9.62;80.66;100771.91;4921264;28;45222;-89
2022/12/19 14:54:03;;;;;;;;;7.00;6.00;;;;;9.65;80.45;100763.09;4935768;28;45396;-89
2022/12/19 14:56:33;;;;;;;;;6.75;6.75;;;;;10.02;80.91;100831.22;4940771;28;47274;-92
2022/12/19 14:59:00;;;;;;;;;4.50;3.50;;;;;9.78;80.79;100788.44;4946525;28;45258;-93
2022/12/19 15:01:33;;;;;;;;;4.25;3.75;;;;;9.01;80.99;100647.81;4916199;28;45327;-92
2022/12/19 15:04:14;;;;;;;;;5.25;5.25;;;;;10.43;80.97;100888.81;4934529;28;45271;-92
2022/12/19 15:06:43;;;;;;;;;5.00;4.00;;;;;10.10;81.18;100830.22;4931691;28;46818;-92
2022/12/19 15:09:15;;;;;;;;;5.00;5.00;;;;;10.46;80.36;100885.22;4932793;28;44658;-91
2022/12/19 15:14:43;;;;;;;;;7.00;5.25;;;;;10.24;80.89;100843.22;4940138;28;45357;-90
2022/12/19 15:17:27;;;;;;;;;5.50;5.50;;;;;10.45;80.82;100870.28;4941379;28;46287;-91
2022/12/19 15:19:56;;;;;;;;;6.25;4.50;;;;;9.06;80.75;100632.81;4937101;28;45350;-90
2022/12/19 15:22:33;;;;;;;;;6.00;5.00;;;;;10.30;80.84;100832.56;4937392;28;45351;-90
2022/12/19 15:25:02;;;;;;;;;6.00;6.00;;;;;10.49;80.54;100875.50;4943926;28;45410;-89
2022/12/19 15:27:30;;;;;;;;;5.25;4.75;;;;;9.10;80.62;100628.38;4941154;28;46877;-89
2022/12/19 15:29:58;;;;;;;;;6.00;6.00;;;;;9.49;80.23;100684.13;4938903;28;45457;-90
2022/12/19 15:32:25;;;;;;;;;7.25;5.25;;;;;9.52;80.07;100702.56;4932572;28;45506;-91
2022/12/19 15:35:04;;;;;;;;;;;;;;;;;;;;;
2022/12/19 15:37:32;;;;;;;;;4.00;4.00;;;;;10.54;80.29;100887.78;4945053;28;74335;-91
2022/12/19 15:40:07;;;;;;;;;6.25;5.25;;;;;9.89;80.61;100775.94;4935247;28;45815;-90
2022/12/19 15:42:38;;;;;;;;;7.00;5.25;;;;;9.32;80.54;100689.63;4924097;28;45373;-90
2022/12/19 15:45:12;;;;;;;;;6.00;6.00;;;;;9.88;80.53;100770.69;4926580;28;45466;-90
2022/12/19 15:47:43;;;;;;;;;6.00;6.00;;;;;9.69;80.65;100723.44;4945854;28;46766;-89
2022/12/19 15:50:20;;;;;;;;;10.25;7.75;;;;;9.55;80.54;100698.97;4944319;28;45430;-90
2022/12/19 15:52:46;;;;;;;;;4.50;4.50;;;;;10.58;80.05;100868.31;4940063;28;45576;-90
2022/12/19 15:55:22;;;;;;;;;7.00;6.00;;;;;10.19;80.14;100804.56;4935649;28;45522;-90
2022/12/19 16:07:40;;;;;;;;;5.75;5.00;;;;;9.11;80.03;100608.13;4792981;29;45536;-91
2022/12/19 16:10:06;;;;;;;;;4.25;2.00;;;;;9.62;80.04;100699.78;4801948;29;47621;-91
2022/12/19 16:12:57;;;;;;;;;5.75;5.25;;;;;8.82;80.44;100575.13;4811030;29;45544;-89
2022/12/19 16:15:30;;;;;;;;;5.75;5.25;;;;;10.20;80.38;100787.81;4799523;29;45524;-89
2022/12/19 16:17:57;;;;;;;;;5.75;4.75;;;;;9.93;80.04;100737.19;4793271;29;45691;-89
2022/12/19 16:20:25;;;;;;;;;8.25;8.25;;;;;8.91;79.89;100585.53;4776522;29;47014;-90
2022/12/19 16:22:53;;;;;;;;;6.00;5.00;;;;;9.04;80.34;100592.41;4794653;29;45488;-89
2022/12/19 16:25:20;;;;;;;;;6.00;6.00;;;;;9.56;79.95;100698.09;4806303;29;45404;-89
2022/12/19 16:27:54;;;;;;;;;5.75;5.50;;;;;10.34;80.06;100814.97;4785647;29;45448;-90
2022/12/19 16:30:25;;;;;;;;;11.00;8.00;;;;;10.25;80.00;100801.84;4805103;29;46128;-89
2022/12/19 16:32:51;;;;;;;;;5.00;5.00;;;;;8.89;80.04;100572.38;4811035;29;45402;-90
2022/12/19 16:35:27;;;;;;;;;9.50;8.50;;;;;9.90;80.35;100758.31;4795592;29;45297;-89
2022/12/19 16:37:53;;;;;;;;;5.50;5.00;;;;;9.88;79.87;100741.63;4808938;29;45531;-89
2022/12/19 16:40:24;;;;;;;;;11.00;9.25;;;;;9.91;80.05;100776.78;4932318;28;46758;-89
2022/12/19 16:42:59;;;;;;;;;8.50;8.00;;;;;9.54;79.92;100706.03;4949435;28;45610;-89
2022/12/19 16:45:25;;;;;;;;;7.00;6.75;;;;;9.16;80.31;100648.53;4942678;28;45336;-88
2022/12/19 16:47:51;;;;;;;;;7.50;7.00;;;;;9.98;80.43;100777.59;4943625;28;45201;-90
2022/12/19 16:50:27;;;;;;;;;11.25;8.75;;;;;9.80;80.04;100730.31;4948916;28;46029;-88
2022/12/19 16:52:54;;;;;;;;;7.75;7.75;;;;;10.56;80.39;100859.53;4939452;28;45423;-91
2022/12/19 16:55:26;;;;;;;;;10.00;8.75;;;;;9.40;79.73;100669.28;4941672;28;45430;-91
2022/12/19 16:57:57;;;;;;;;;8.00;8.00;;;;;9.36;80.53;100672.84;4927371;28;45409;-90
2022/12/19 17:00:29;;;;;;;;;12.00;7.00;;;;;10.21;80.46;100816.00;4949316;28;46024;-92
2022/12/19 17:03:35;;;;;;;;;10.75;9.25;;;;;9.48;80.71;100703.47;4938305;28;45327;-90
2022/12/19 17:06:02;;;;;;;;;12.00;8.25;;;;;10.54;80.22;100879.84;4972912;28;45436;-92
2022/12/19 17:08:39;;;;;;;;;12.00;10.00;;;;;9.51;80.45;100724.53;4952909;28;45248;-91
2022/12/19 17:11:23;;;;;;;;;9.00;8.00;;;;;10.53;80.32;100870.16;4949391;28;46317;-91
2022/12/19 17:13:52;;;;;;;;;9.00;9.00;;;;;9.46;79.59;100689.44;4952093;28;45177;-90
2022/12/19 17:16:20;;;;;;;;;10.50;10.50;;;;;9.23;80.55;100650.16;4955762;28;45256;-90
2022/12/19 17:18:49;;;;;;;;;9.50;7.75;;;;;8.94;79.94;100596.03;4956119;28;45312;-92
2022/12/19 17:21:21;;;;;;;;;10.50;10.50;;;;;8.89;79.74;100582.91;4948231;28;46845;-92
2022/12/19 17:23:51;;;;;;;;;12.75;11.75;;;;;8.86;79.79;100590.88;4950434;28;45442;-92
2022/12/19 17:26:21;;;;;;;;;8.00;6.75;;;;;9.82;80.18;100739.09;4952516;28;44626;-90
2022/12/19 17:28:47;;;;;;;;;12.00;8.25;;;;;9.20;79.40;100629.09;4954436;28;45396;-87
2022/12/19 17:31:29;;;;;;;;;8.75;8.50;;;;;9.45;79.73;100665.72;4941601;28;46864;-91
2022/12/19 17:33:57;;;;;;;;;10.50;10.50;;;;;9.85;80.21;100760.16;4926756;28;45427;-90
2022/12/19 17:36:30;;;;;;;;;9.25;9.25;;;;;8.76;79.94;100547.09;4945754;28;45272;-90
2022/12/19 17:39:22;;;;;;;;;13.50;12.25;;;;;10.46;79.96;100832.38;4943597;28;45410;-90
2022/12/19 17:42:00;;;;;;;;;10.25;10.00;;;;;9.27;79.79;100625.50;4941556;28;45415;-90
2022/12/19 17:44:39;;;;;;;;;12.00;9.50;;;;;9.40;79.75;100653.47;4935417;28;45433;-90
2022/12/19 17:47:05;;;;;;;;;12.50;9.75;;;;;9.36;80.07;100645.59;4946498;28;45415;-91
2022/12/19 17:49:36;;;;;;;;;11.00;9.25;;;;;8.83;79.22;100551.38;4949149;28;45168;-91
2022/12/19 17:52:04;;;;;;;;;11.00;11.00;;;;;9.48;79.83;100676.22;4949200;28;48217;-89
2022/12/19 17:54:31;;;;;;;;;9.75;9.75;;;;;9.41;80.04;100670.16;4946961;28;45268;-92
2022/12/19 17:56:57;;;;;;;;;10.50;8.50;;;;;9.70;79.81;100716.38;4949158;28;45296;-91
2022/12/19 17:59:22;;;;;;;;;10.25;9.00;;;;;9.17;78.99;100629.16;4952152;28;45057;-90
2022/12/19 18:08:54;;;;;;;;;8.00;8.00;;;;;10.43;79.62;100841.25;4963924;28;45421;-91
2022/12/19 18:11:25;;;;;;;;;12.50;9.50;;;;;9.11;79.36;100606.38;4943406;28;45560;-88
2022/12/19 18:13:52;;;;;;;;;12.25;10.50;;;;;9.66;79.70;100710.28;4942088;28;47057;-88
2022/12/19 18:16:29;;;;;;;;;9.50;9.50;;;;;9.20;79.05;100627.38;4954190;28;45372;-89
2022/12/19 18:18:55;;;;;;;;;11.00;9.75;;;;;10.45;79.25;100852.66;4943072;28;45554;-89
2022/12/19 18:21:38;;;;;;;;;11.75;10.75;;;;;9.71;79.82;100719.00;4924705;28;45565;-90
2022/12/19 18:24:16;;;;;;;;;12.25;11.75;;;;;9.74;79.34;100711.03;4937867;28;46443;-90
2022/12/19 18:26:43;;;;;;;;;9.50;9.50;;;;;9.50;79.19;100685.84;4949590;28;45525;-88
2022/12/19 18:29:13;;;;;;;;;11.00;8.00;;;;;10.32;79.57;100814.06;4936387;28;45485;-89
2022/12/19 18:31:39;;;;;;;;;13.00;12.50;;;;;10.52;79.52;100836.69;4956613;28;45466;-88
2022/12/19 18:34:39;;;;;;;;;10.75;9.50;;;;;9.82;78.93;100734.66;4954513;28;47346;-88
2022/12/19 18:43:18;;;;;;;;;8.75;8.75;;;;;9.05;79.38;100609.13;4903140;28;45284;-88
2022/12/19 18:46:07;;;;;;;;;13.75;13.25;;;;;9.49;79.70;100683.22;4895141;29;47395;-88